Time;durP1;ratioP1;P1;durP2;ratioP2;P2;SDS_P1;SDS_P2;PMS_P1;PMS_P2;Temp;Humidity;BMP_temperature;BMP_pressure;BME280_temperature;BME280_humidity;BME280_pressure;Samples;Min_cycle;Max_cycle;Signal;HPM_P1;HPM_P2
2023/10/02 00:01:25;;;;;;;23.70;13.65;;;;;;;15.98;100.00;101941.91;5072331;28;20090;-89
2023/10/02 00:04:16;;;;;;;19.83;13.38;;;;;;;15.96;100.00;101945.66;5075918;28;20559;-85
2023/10/02 00:06:36;;;;;;;22.02;13.23;;;;;;;15.98;100.00;101946.38;5050868;28;20040;-89
2023/10/02 00:09:05;;;;;;;20.75;12.38;;;;;;;15.95;100.00;101943.97;5068283;28;20487;-84
2023/10/02 00:11:45;;;;;;;22.63;13.45;;;;;;;15.95;100.00;101936.00;5087671;28;20063;-84
2023/10/02 00:14:18;;;;;;;21.42;12.60;;;;;;;15.92;100.00;101952.19;5084168;28;20048;-84
2023/10/02 00:16:58;;;;;;;19.63;11.98;;;;;;;15.93;100.00;101948.56;5088715;28;20480;-84
2023/10/02 00:19:38;;;;;;;20.05;13.05;;;;;;;15.89;100.00;101941.81;5069258;28;20143;-84
2023/10/02 00:22:07;;;;;;;22.48;13.25;;;;;;;15.89;100.00;101947.13;5079452;28;20063;-84
2023/10/02 00:24:38;;;;;;;20.17;13.23;;;;;;;15.80;100.00;101951.34;5067931;28;20029;-86
2023/10/02 00:27:07;;;;;;;20.70;12.70;;;;;;;15.81;100.00;101941.59;5066031;28;20021;-89
2023/10/02 00:29:34;;;;;;;21.00;13.40;;;;;;;15.81;100.00;101934.47;5063317;28;20032;-86
2023/10/02 00:32:00;;;;;;;22.38;12.65;;;;;;;15.79;100.00;101936.38;5063263;28;20057;-90
2023/10/02 00:34:32;;;;;;;22.80;13.82;;;;;;;15.78;100.00;101939.16;5070802;28;20062;-89
2023/10/02 00:37:06;;;;;;;21.15;13.48;;;;;;;15.79;100.00;101943.50;5069738;28;20020;-89
2023/10/02 00:39:35;;;;;;;20.55;13.57;;;;;;;15.77;100.00;101937.47;5071151;28;20028;-85
2023/10/02 00:44:57;;;;;;;20.80;12.63;;;;;;;15.75;100.00;101934.09;5057439;28;20045;-84
2023/10/02 00:47:43;;;;;;;22.30;12.52;;;;;;;15.70;100.00;101941.59;5070748;28;20062;-85
2023/10/02 00:50:19;;;;;;;20.27;12.75;;;;;;;15.71;100.00;101937.97;5078522;28;20032;-85
2023/10/02 00:52:55;;;;;;;19.27;12.40;;;;;;;15.61;100.00;101928.06;5089067;28;20115;-84
2023/10/02 00:55:24;;;;;;;20.08;12.52;;;;;;;15.63;100.00;101930.59;5086754;28;20048;-85
2023/10/02 00:57:56;;;;;;;21.55;12.93;;;;;;;15.60;100.00;101926.34;5067645;28;20093;-85
2023/10/02 01:00:30;;;;;;;19.85;12.93;;;;;;;15.57;100.00;101931.88;5085847;28;20079;-89
2023/10/02 01:02:58;;;;;;;22.45;12.95;;;;;;;15.53;100.00;101930.41;5074585;28;20020;-85
2023/10/02 01:05:41;;;;;;;18.45;12.13;;;;;;;15.49;100.00;101923.66;5068181;28;20059;-89
2023/10/02 01:08:23;;;;;;;18.77;12.85;;;;;;;15.43;100.00;101934.75;5071191;28;20585;-86
2023/10/02 01:11:02;;;;;;;21.13;13.02;;;;;;;15.43;100.00;101929.44;5069543;28;20035;-89
2023/10/02 01:13:35;;;;;;;19.92;12.93;;;;;;;15.39;100.00;101925.34;5071156;28;20024;-84
2023/10/02 01:16:04;;;;;;;19.83;13.80;;;;;;;15.40;100.00;101928.84;5087032;28;20563;-89
2023/10/02 01:18:30;;;;;;;20.83;12.73;;;;;;;15.44;100.00;101915.22;5081664;28;20035;-85
2023/10/02 01:21:01;;;;;;;20.90;12.30;;;;;;;15.38;100.00;101921.00;5068922;28;20107;-89
2023/10/02 01:23:28;;;;;;;19.27;12.25;;;;;;;15.42;100.00;101917.16;5084846;28;20430;-85
2023/10/02 01:26:00;;;;;;;22.35;13.63;;;;;;;15.45;100.00;101916.91;5082980;28;20081;-88
2023/10/02 01:28:51;;;;;;;21.65;13.43;;;;;;;15.42;100.00;101916.31;5072622;28;20054;-88
2023/10/02 01:31:32;;;;;;;17.33;12.02;;;;;;;15.45;100.00;101916.91;5079649;28;20035;-87
2023/10/02 01:33:59;;;;;;;20.63;13.10;;;;;;;15.42;100.00;101917.16;5070064;28;20095;-84
2023/10/02 01:36:31;;;;;;;19.30;12.60;;;;;;;15.41;100.00;101915.47;5068522;28;20029;-88
2023/10/02 01:38:59;;;;;;;20.23;12.82;;;;;;;15.42;100.00;101911.84;5085069;28;20052;-89
2023/10/02 01:41:26;;;;;;;19.35;12.85;;;;;;;15.38;100.00;101913.06;5084342;28;20024;-89
2023/10/02 01:43:55;;;;;;;19.08;12.43;;;;;;;15.40;100.00;101908.47;5087886;28;20024;-90
2023/10/02 01:46:22;;;;;;;17.65;11.73;;;;;;;15.42;100.00;101911.84;5081702;28;20102;-86
2023/10/02 01:48:48;;;;;;;20.17;12.77;;;;;;;15.42;100.00;101911.00;5070196;28;20528;-89
2023/10/02 01:51:29;;;;;;;20.88;12.35;;;;;;;15.43;100.00;101908.22;5081790;28;20028;-89
2023/10/02 01:53:57;;;;;;;19.80;12.30;;;;;;;15.42;100.00;101911.84;5090109;28;20016;-88
2023/10/02 01:56:29;;;;;;;20.95;12.82;;;;;;;15.38;100.00;101913.06;5075812;28;20124;-89
2023/10/02 01:59:09;;;;;;;24.30;13.30;;;;;;;15.40;100.00;101903.16;5063752;28;20488;-85
2023/10/02 02:01:55;;;;;;;20.77;12.77;;;;;;;15.41;100.00;101910.16;5074350;28;20035;-86
2023/10/02 02:04:32;;;;;;;19.30;12.27;;;;;;;15.39;100.00;101906.78;5077256;28;20016;-85
2023/10/02 02:07:00;;;;;;;22.10;12.75;;;;;;;15.38;100.00;101905.09;5058157;28;20031;-85
2023/10/02 02:09:33;;;;;;;20.98;12.55;;;;;;;15.41;100.00;101904.84;5084573;28;20082;-86
2023/10/02 02:12:06;;;;;;;30.60;13.60;;;;;;;15.40;100.00;101902.31;5067925;28;20029;-85
2023/10/02 02:14:52;;;;;;;20.23;13.18;;;;;;;15.37;100.00;101900.75;5080885;28;20031;-86
2023/10/02 02:17:26;;;;;;;22.92;12.82;;;;;;;15.34;100.00;101909.78;5082014;28;20167;-85
2023/10/02 02:19:53;;;;;;;20.40;13.18;;;;;;;15.34;100.00;101908.94;5070388;28;20499;-85
2023/10/02 02:22:31;;;;;;;19.38;12.60;;;;;;;15.34;100.00;101908.94;5071231;28;20013;-88
2023/10/02 02:25:00;;;;;;;23.67;13.40;;;;;;;15.33;100.00;101908.09;5086806;28;20039;-89
2023/10/02 02:27:25;;;;;;;20.58;12.77;;;;;;;15.32;100.00;101914.38;5071138;28;20561;-88
2023/10/02 02:29:54;;;;;;;22.02;13.45;;;;;;;15.32;100.00;101902.91;5071051;28;20056;-89
2023/10/02 02:32:36;;;;;;;20.52;12.55;;;;;;;15.32;100.00;101900.28;5074012;28;20021;-85
2023/10/02 02:35:05;;;;;;;27.10;13.10;;;;;;;15.27;100.00;101910.38;5053361;28;20036;-89
2023/10/02 02:37:32;;;;;;;20.58;12.45;;;;;;;15.27;100.00;101902.44;5070867;28;20124;-85
2023/10/02 02:40:21;;;;;;;20.95;12.82;;;;;;;15.27;100.00;101897.97;5072151;28;20034;-85
2023/10/02 02:42:45;;;;;;;20.20;13.20;;;;;;;15.23;100.00;101899.19;5073322;28;20029;-85
2023/10/02 02:45:24;;;;;;;20.60;13.00;;;;;;;15.23;100.00;101891.22;5055939;28;20066;-85
2023/10/02 02:47:54;;;;;;;20.13;12.20;;;;;;;15.25;100.00;101894.59;5072528;28;20056;-85
2023/10/02 02:50:28;;;;;;;20.50;12.95;;;;;;;15.20;100.00;101893.22;5053772;28;20032;-86
2023/10/02 02:55:40;;;;;;;20.10;12.70;;;;;;;15.19;100.00;101894.19;5084541;28;20046;-88
2023/10/02 02:58:07;;;;;;;19.90;13.15;;;;;;;15.20;100.00;101890.59;5079708;28;20103;-86
2023/10/02 03:00:35;;;;;;;21.52;13.50;;;;;;;15.15;100.00;101884.78;5061658;28;20016;-86
2023/10/02 03:03:02;;;;;;;21.10;12.82;;;;;;;15.16;100.00;101881.19;5071919;28;20082;-86
2023/10/02 03:05:38;;;;;;;18.23;11.88;;;;;;;15.16;100.00;101894.44;5072587;28;20107;-88
2023/10/02 03:08:07;;;;;;;21.17;12.70;;;;;;;15.15;100.00;101892.75;5071997;28;20067;-88
2023/10/02 03:10:39;;;;;;;21.60;13.10;;;;;;;15.11;100.00;101876.22;5060832;28;20023;-88
2023/10/02 03:13:08;;;;;;;21.55;13.27;;;;;;;15.14;100.00;101885.75;5091081;28;20077;-85
2023/10/02 03:15:46;;;;;;;20.58;12.93;;;;;;;15.11;100.00;101876.22;5081903;28;20262;-86
2023/10/02 03:18:31;;;;;;;23.05;12.73;;;;;;;15.09;100.00;101877.31;5072141;28;20077;-85
2023/10/02 03:21:15;;;;;;;21.73;12.80;;;;;;;15.09;100.00;101862.25;5057655;28;20024;-88
2023/10/02 03:23:42;;;;;;;23.50;13.98;;;;;;;15.08;100.00;101873.81;5076383;28;20078;-84
2023/10/02 03:26:27;;;;;;;20.00;12.50;;;;;;;15.09;100.00;101862.25;5089202;28;20032;-85
2023/10/02 03:29:03;;;;;;;24.30;13.40;;;;;;;15.08;100.00;101854.41;5111367;28;20027;-83
2023/10/02 03:31:43;;;;;;;21.58;12.95;;;;;;;15.07;100.00;101863.34;5103920;28;20076;-87
2023/10/02 03:40:00;;;;;;;27.60;13.80;;;;;;;15.08;100.00;101865.88;5108326;28;20028;-86
2023/10/02 03:42:33;;;;;;;21.30;12.68;;;;;;;15.05;100.00;101861.66;5079367;28;20016;-87
2023/10/02 03:45:02;;;;;;;19.73;12.27;;;;;;;15.04;100.00;101869.72;5097100;28;20044;-85
2023/10/02 03:47:33;;;;;;;23.90;14.13;;;;;;;15.04;100.00;101870.56;5116979;28;20042;-83
2023/10/02 03:50:03;;;;;;;21.92;12.80;;;;;;;15.08;100.00;101873.81;5107359;28;20032;-84
2023/10/02 03:52:30;;;;;;;21.08;13.05;;;;;;;15.06;100.00;101867.78;5089595;28;20008;-87
2023/10/02 03:54:56;;;;;;;20.45;12.77;;;;;;;15.05;100.00;101868.75;5109338;28;20008;-87
2023/10/02 03:57:47;;;;;;;20.95;13.70;;;;;;;15.05;100.00;101866.94;5095329;28;20039;-81
2023/10/02 04:00:24;;;;;;;22.50;13.40;;;;;;;15.05;100.00;101874.91;5094932;28;20004;-85
2023/10/02 04:02:53;;;;;;;22.80;12.73;;;;;;;15.04;100.00;101870.56;5100874;28;20028;-83
2023/10/02 04:08:13;;;;;;;22.20;13.75;;;;;;;15.04;100.00;101875.88;5098908;28;20066;-85
2023/10/02 04:10:51;;;;;;;23.02;14.50;;;;;;;15.03;100.00;101874.19;5072160;28;20055;-85
2023/10/02 04:13:23;;;;;;;21.92;13.77;;;;;;;15.04;100.00;101875.03;5060131;28;20031;-84
2023/10/02 04:15:53;;;;;;;28.15;14.40;;;;;;;15.03;100.00;101874.19;5072940;28;20035;-85
2023/10/02 04:21:09;;;;;;;21.95;13.52;;;;;;;15.01;100.00;101865.50;5077219;28;20075;-85
2023/10/02 04:23:40;;;;;;;21.10;14.27;;;;;;;15.00;100.00;101853.22;5091320;28;20268;-85
2023/10/02 04:26:19;;;;;;;22.27;13.93;;;;;;;14.98;100.00;101863.09;5085392;28;20033;-85
2023/10/02 04:28:55;;;;;;;24.23;14.02;;;;;;;15.01;100.00;101862.84;5077375;28;20008;-86
2023/10/02 04:31:29;;;;;;;25.05;13.88;;;;;;;14.98;100.00;101860.44;5090734;28;20710;-87
2023/10/02 04:36:43;;;;;;;22.33;13.23;;;;;;;14.98;100.00;101865.72;5089883;28;20042;-85
2023/10/02 04:42:19;;;;;;;24.38;13.90;;;;;;;14.94;100.00;101869.59;5083605;28;20036;-86
2023/10/02 04:44:56;;;;;;;21.05;13.23;;;;;;;14.96;100.00;101865.00;5092550;28;20024;-85
2023/10/02 04:47:23;;;;;;;25.75;13.93;;;;;;;14.93;100.00;101865.25;5091489;28;20020;-85
2023/10/02 04:52:58;;;;;;;24.80;13.60;;;;;;;14.91;100.00;101868.97;5091749;28;20429;-85
2023/10/02 04:55:31;;;;;;;22.45;13.77;;;;;;;14.90;100.00;101862.81;5062292;28;20028;-85
2023/10/02 04:58:04;;;;;;;21.77;13.27;;;;;;;14.85;100.00;101861.50;5080352;28;20031;-87
2023/10/02 05:00:33;;;;;;;23.40;13.93;;;;;;;14.80;100.00;101861.81;5075364;28;20039;-86
2023/10/02 05:03:09;;;;;;;22.52;13.90;;;;;;;14.81;100.00;101857.34;5072590;28;20046;-85
2023/10/02 05:05:48;;;;;;;23.17;13.93;;;;;;;14.75;100.00;101863.97;5075279;28;20028;-85
2023/10/02 05:08:20;;;;;;;25.50;14.50;;;;;;;14.76;100.00;101860.34;5069872;28;20023;-85
2023/10/02 05:10:53;;;;;;;22.13;13.85;;;;;;;14.76;100.00;101855.06;5086319;28;20112;-85
2023/10/02 05:16:07;;;;;;;23.27;14.10;;;;;;;14.70;100.00;101858.16;5088275;28;20084;-85
2023/10/02 05:18:33;;;;;;;22.15;13.82;;;;;;;14.72;100.00;101861.56;5069706;28;20044;-85
2023/10/02 05:21:03;;;;;;;22.40;13.40;;;;;;;14.66;100.00;101859.38;5070093;28;20013;-85
2023/10/02 05:23:30;;;;;;;24.85;14.48;;;;;;;14.67;100.00;101861.06;5072832;28;20032;-87
2023/10/02 05:26:00;;;;;;;22.20;13.73;;;;;;;14.64;100.00;101864.78;5070885;28;21584;-85
2023/10/02 05:28:38;;;;;;;22.20;13.93;;;;;;;14.64;100.00;101856.84;5072506;28;20020;-84
2023/10/02 05:31:07;;;;;;;22.50;14.18;;;;;;;14.62;100.00;101863.22;5086307;28;20476;-85
2023/10/02 05:33:37;;;;;;;22.77;14.32;;;;;;;14.62;100.00;101864.06;5050322;28;20036;-86
2023/10/02 05:36:09;;;;;;;22.98;14.73;;;;;;;14.61;100.00;101865.00;5055342;28;20107;-85
2023/10/02 05:38:35;;;;;;;27.92;15.23;;;;;;;14.55;100.00;101868.13;5069792;28;20337;-85
2023/10/02 05:41:03;;;;;;;23.63;14.82;;;;;;;14.53;100.00;101863.91;5051700;28;20027;-86
2023/10/02 05:43:31;;;;;;;28.58;14.65;;;;;;;14.51;100.00;101866.66;5068976;28;20565;-85
2023/10/02 05:45:57;;;;;;;26.33;14.82;;;;;;;14.49;100.00;101865.09;5070566;28;20127;-85
2023/10/02 05:50:52;;;;;;;24.33;14.95;;;;;;;14.43;100.00;101870.84;5069330;28;20480;-85
2023/10/02 05:53:26;;;;;;;22.20;13.90;;;;;;;14.45;100.00;101882.16;5070356;28;20052;-85
2023/10/02 05:58:36;;;;;;;22.70;13.88;;;;;;;14.40;100.00;101891.22;5069593;28;20450;-86
2023/10/02 06:01:12;;;;;;;22.40;14.40;;;;;;;14.37;100.00;101893.25;5068302;28;20039;-85
2023/10/02 06:03:37;;;;;;;21.63;14.45;;;;;;;14.36;100.00;101895.06;5070950;28;20113;-86
2023/10/02 06:06:24;;;;;;;21.42;13.85;;;;;;;14.43;100.00;101892.03;5077015;28;20052;-84
2023/10/02 06:08:55;;;;;;;24.63;14.80;;;;;;;14.45;100.00;101882.16;5072880;28;20036;-85
2023/10/02 06:11:31;;;;;;;22.40;14.50;;;;;;;14.50;100.00;101886.16;5073604;28;20380;-86
2023/10/02 06:14:09;;;;;;;25.55;14.88;;;;;;;14.54;100.00;101886.78;5073839;28;20016;-86
2023/10/02 06:16:41;;;;;;;24.90;14.63;;;;;;;14.55;100.00;101888.47;5087438;28;20039;-86
2023/10/02 06:19:13;;;;;;;25.48;14.90;;;;;;;14.57;100.00;101887.38;5088104;28;20021;-86
2023/10/02 06:21:46;;;;;;;24.73;15.32;;;;;;;14.55;100.00;101883.16;5072023;28;20115;-84
2023/10/02 06:24:13;;;;;;;26.58;14.88;;;;;;;14.61;100.00;101893.31;5072603;28;20484;-84
2023/10/02 06:26:58;;;;;;;25.17;14.50;;;;;;;14.63;100.00;101896.69;5072483;28;20369;-84
2023/10/02 06:29:35;;;;;;;22.85;14.70;;;;;;;14.66;100.00;101891.16;5060506;28;20078;-84
2023/10/02 06:32:11;;;;;;;24.10;15.18;;;;;;;14.66;100.00;101891.16;5072777;28;20024;-85
2023/10/02 06:34:43;;;;;;;24.85;15.20;;;;;;;14.69;100.00;101888.28;5060916;28;20125;-86
2023/10/02 06:37:35;;;;;;;24.63;15.02;;;;;;;14.77;100.00;101893.84;5076815;28;20120;-85
2023/10/02 06:40:34;;;;;;;25.27;16.15;;;;;;;14.79;100.00;101886.63;5068550;28;20024;-85
2023/10/02 06:42:57;;;;;;;26.80;15.95;;;;;;;14.83;100.00;101893.41;5068118;28;20124;-85
2023/10/02 06:45:26;;;;;;;27.40;17.00;;;;;;;14.89;100.00;101892.94;5071144;28;20416;-84
2023/10/02 06:47:52;;;;;;;26.77;17.13;;;;;;;14.94;100.00;101897.88;5072641;28;20012;-85
2023/10/02 06:52:49;;;;;;;30.13;17.50;;;;;;;15.04;100.00;101898.88;5072513;28;20032;-84
2023/10/02 06:55:17;;;;;;;24.52;15.90;;;;;;;15.10;100.00;101894.91;5064800;28;20184;-84
2023/10/02 06:57:49;;;;;;;27.98;17.70;;;;;;;15.16;100.00;101905.03;5077518;28;20492;-87
2023/10/02 07:00:19;;;;;;;29.33;17.02;;;;;;;15.21;100.00;101900.22;5055085;28;20395;-86
2023/10/02 07:03:03;;;;;;;26.20;16.52;;;;;;;15.25;100.00;101893.75;5059459;28;20059;-85
2023/10/02 07:05:32;;;;;;;26.23;16.38;;;;;;;15.34;100.00;101885.09;5089250;28;20062;-85
2023/10/02 07:08:18;;;;;;;25.98;16.05;;;;;;;15.38;100.00;101883.88;5061060;28;20131;-85
2023/10/02 07:10:45;;;;;;;31.10;16.83;;;;;;;15.48;100.00;101889.31;5052975;28;20056;-84
2023/10/02 07:13:20;;;;;;;26.15;16.58;;;;;;;15.59;100.00;101887.53;5073878;28;20028;-86
2023/10/02 07:15:46;;;;;;;26.83;16.85;;;;;;;15.71;100.00;101884.91;5073112;28;20058;-86
2023/10/02 07:18:14;;;;;;;27.13;16.42;;;;;;;15.82;100.00;101882.22;5076076;28;20020;-84
2023/10/02 07:20:43;;;;;;;29.13;16.10;;;;;;;15.97;100.00;101883.66;5075207;28;20021;-86
2023/10/02 07:23:19;;;;;;;27.02;16.60;;;;;;;16.09;100.00;101889.81;5068740;28;20035;-87
2023/10/02 07:25:50;;;;;;;24.92;16.38;;;;;;;16.20;100.00;101890.63;5051397;28;20456;-87
2023/10/02 07:28:20;;;;;;;27.38;16.02;;;;;;;16.37;100.00;101885.72;5071921;28;20020;-87
2023/10/02 07:30:46;;;;;;;24.42;15.93;;;;;;;16.50;100.00;101878.47;5071511;28;20108;-84
2023/10/02 07:33:12;;;;;;;26.58;16.38;;;;;;;16.64;100.00;101879.97;5085123;28;20016;-86
2023/10/02 07:35:38;;;;;;;26.55;16.35;;;;;;;16.71;100.00;101897.97;5090802;28;20046;-87
2023/10/02 07:38:08;;;;;;;24.60;15.35;;;;;;;16.80;100.00;101897.19;5081967;28;20048;-88
2023/10/02 07:40:48;;;;;;;27.15;15.10;;;;;;;16.83;100.00;101891.66;5058302;28;20085;-84
2023/10/02 07:43:18;;;;;;;28.00;15.93;;;;;;;16.90;100.00;101895.47;5069015;28;20024;-84
2023/10/02 07:46:14;;;;;;;25.13;14.95;;;;;;;16.96;100.00;101895.94;5077661;28;20123;-84
2023/10/02 07:48:55;;;;;;;27.95;15.70;;;;;;;16.98;100.00;101896.63;5051772;28;20100;-85
2023/10/02 07:51:30;;;;;;;26.60;15.57;;;;;;;17.01;100.00;101888.41;5042632;28;20032;-86
2023/10/02 07:53:58;;;;;;;31.25;15.32;;;;;;;17.06;100.00;101888.84;5071561;28;20026;-84
2023/10/02 07:56:25;;;;;;;29.08;15.45;;;;;;;17.06;100.00;101881.72;5087456;28;20021;-84
2023/10/02 07:58:55;;;;;;;28.38;16.00;;;;;;;17.06;100.00;101880.88;5070882;28;20027;-83
2023/10/02 08:01:27;;;;;;;24.85;15.38;;;;;;;17.08;100.00;101897.53;5070877;28;20032;-81
2023/10/02 08:03:55;;;;;;;27.55;16.08;;;;;;;17.09;100.00;101894.75;5070692;28;20118;-81
2023/10/02 08:06:23;;;;;;;25.15;15.15;;;;;;;17.11;100.00;101886.63;5070207;28;20115;-83
2023/10/02 08:11:47;;;;;;;27.50;16.23;;;;;;;17.17;100.00;101894.09;5071468;28;20036;-81
2023/10/02 08:14:57;;;;;;;26.77;15.43;;;;;;;17.25;100.00;101894.31;5071777;28;20032;-80
2023/10/02 08:17:08;;;;;;;25.20;15.57;;;;;;;17.34;100.00;101898.84;5067236;28;20480;-83
2023/10/02 08:19:36;;;;;;;26.25;16.58;;;;;;;17.43;100.00;101900.69;5071651;28;20021;-83
2023/10/02 08:22:05;;;;;;;23.52;15.57;;;;;;;17.64;100.00;101891.84;5074428;28;20188;-83
2023/10/02 08:24:32;;;;;;;25.58;16.02;;;;;;;17.75;100.00;101903.25;5060476;28;20054;-83
2023/10/02 08:26:57;;;;;;;27.88;16.45;;;;;;;17.97;100.00;101898.69;5081675;28;20056;-83
2023/10/02 08:29:26;;;;;;;28.35;16.58;;;;;;;18.19;100.00;101892.31;5080400;28;20506;-83
2023/10/02 08:31:53;;;;;;;24.38;15.75;;;;;;;18.40;100.00;101903.69;5059754;28;20085;-83
2023/10/02 08:34:24;;;;;;;25.05;14.93;;;;;;;18.68;100.00;101896.75;5070814;28;20025;-82
2023/10/02 08:37:07;;;;;;;26.20;15.50;;;;;;;18.90;100.00;101890.28;5075659;28;20060;-83
2023/10/02 08:39:38;;;;;;;26.15;15.43;;;;;;;19.13;98.78;101896.97;5089706;28;20468;-83
2023/10/02 08:42:10;;;;;;;24.17;15.10;;;;;;;19.42;97.44;101895.09;5067964;28;20032;-83
2023/10/02 08:44:43;;;;;;;22.67;14.77;;;;;;;19.66;95.45;101885.78;5077124;28;20082;-83
2023/10/02 08:47:11;;;;;;;;;;;;;;;19.86;100.00;101892.69;5070115;28;20036;-83
2023/10/02 08:49:40;;;;;;;23.45;14.20;;;;;;;20.16;94.15;101890.72;5052229;28;19920;-83
2023/10/02 08:52:09;;;;;;;23.38;14.30;;;;;;;20.31;93.36;101886.50;5070713;28;20012;-83
2023/10/02 08:54:35;;;;;;;22.08;14.10;;;;;;;20.43;92.95;101888.03;5057907;28;20003;-83
2023/10/02 08:57:08;;;;;;;24.02;13.98;;;;;;;20.46;92.82;101884.22;5090498;28;20256;-81
2023/10/02 08:59:41;;;;;;;23.55;14.48;;;;;;;20.48;93.15;101875.03;5090754;28;20023;-83
2023/10/02 09:02:14;;;;;;;;;;;;;;;20.61;97.59;101874.66;5090603;28;20034;-81
2023/10/02 09:05:09;;;;;;;21.80;13.52;;;;;;;20.54;94.49;101870.91;5073951;28;19986;-81
2023/10/02 09:10:24;;;;;;;21.10;13.13;;;;;;;20.42;92.89;101877.50;5070224;28;20064;-82
2023/10/02 09:13:41;;;;;;;23.30;14.65;;;;;;;20.49;94.26;101883.91;5070095;28;20024;-83
2023/10/02 09:16:13;;;;;;;26.55;14.80;;;;;;;20.41;90.52;101887.31;5051944;28;20025;-82
2023/10/02 09:21:47;;;;;;;22.63;14.35;;;;;;;20.36;92.68;101878.88;5079777;28;20429;-81
2023/10/02 09:24:23;;;;;;;26.73;14.85;;;;;;;20.34;92.03;101880.88;5071532;28;20031;-81
2023/10/02 09:26:49;;;;;;;24.60;14.95;;;;;;;20.33;92.11;101871.16;5069072;28;20028;-81
2023/10/02 09:29:16;;;;;;;25.50;15.73;;;;;;;20.21;90.70;101869.72;5087169;28;20070;-82
2023/10/02 09:31:47;;;;;;;26.30;15.35;;;;;;;20.21;93.13;101880.41;5081004;28;20055;-81
2023/10/02 09:34:16;;;;;;;25.65;14.75;;;;;;;20.19;91.78;101875.22;5048014;28;20031;-80
2023/10/02 09:36:52;;;;;;;24.25;15.13;;;;;;;20.13;92.43;101883.00;5070090;28;20111;-82
2023/10/02 09:39:36;;;;;;;25.50;15.07;;;;;;;20.06;93.47;101876.56;5063008;28;20078;-82
2023/10/02 09:42:25;;;;;;;24.67;15.23;;;;;;;20.04;94.65;101876.72;5071422;28;20081;-82
2023/10/02 09:44:53;;;;;;;25.67;15.02;;;;;;;19.99;93.78;101882.50;5071455;28;20131;-82
2023/10/02 09:47:26;;;;;;;25.60;15.48;;;;;;;20.00;94.72;101878.81;5055622;28;20020;-82
2023/10/02 09:50:11;;;;;;;26.40;15.13;;;;;;;20.91;93.35;101874.22;5073279;28;20036;-82
2023/10/02 09:52:58;;;;;;;28.30;15.05;;;;;;;22.26;89.92;101871.75;5073469;28;20024;-82
2023/10/02 09:55:41;;;;;;;21.60;14.07;;;;;;;23.61;83.71;101869.31;5085465;28;20028;-82
2023/10/02 09:58:26;;;;;;;26.67;14.52;;;;;;;24.58;75.31;101872.50;5093883;28;20024;-82
2023/10/02 10:01:34;;;;;;;24.05;14.10;;;;;;;26.01;73.41;101871.34;5094135;28;20058;-83
2023/10/02 10:04:00;;;;;;;23.23;15.02;;;;;;;26.87;62.56;101860.59;5073278;28;20020;-83
2023/10/02 10:06:29;;;;;;;24.85;14.85;;;;;;;26.19;61.59;101862.84;5073043;28;20032;-82
2023/10/02 10:11:42;;;;;;;24.90;15.05;;;;;;;24.99;66.45;101860.41;5080968;28;20042;-89
2023/10/02 10:14:44;;;;;;;24.15;14.40;;;;;;;24.67;73.55;101855.28;5081505;28;20469;-89
2023/10/02 10:17:16;;;;;;;24.38;14.90;;;;;;;24.17;69.85;101856.63;5078312;28;20017;-89
2023/10/02 10:20:08;;;;;;;25.58;15.32;;;;;;;23.87;73.18;101852.94;5060098;28;20036;-88
2023/10/02 10:22:40;;;;;;;24.77;15.55;;;;;;;23.60;72.08;101840.78;5086208;28;20028;-82
2023/10/02 10:25:35;;;;;;;24.88;15.63;;;;;;;23.67;75.19;101844.47;5073358;28;20024;-90
2023/10/02 10:28:05;;;;;;;23.42;14.48;;;;;;;23.50;73.61;101840.13;5067411;28;20043;-89
2023/10/02 10:35:55;;;;;;;24.95;15.15;;;;;;;23.27;76.96;101840.06;5078904;28;20027;-83
2023/10/02 10:38:26;;;;;;;27.23;15.23;;;;;;;23.23;74.22;101833.34;5079349;28;20424;-82
2023/10/02 10:41:05;;;;;;;23.10;14.75;;;;;;;23.34;77.92;101834.81;5089719;28;20476;-82
2023/10/02 10:46:16;;;;;;;25.15;14.93;;;;;;;23.16;75.04;101826.97;5085214;28;20435;-82
2023/10/02 10:48:45;;;;;;;27.92;15.70;;;;;;;22.93;76.69;101820.66;5086297;28;20036;-88
2023/10/02 10:51:33;;;;;;;27.92;14.68;;;;;;;22.91;78.58;101828.03;5090909;28;20047;-83
2023/10/02 10:54:30;;;;;;;26.20;14.38;;;;;;;22.88;79.48;101825.69;5049126;28;20020;-82
2023/10/02 10:57:22;;;;;;;31.23;14.80;;;;;;;22.68;79.01;101820.66;5069306;28;20384;-82
2023/10/02 11:03:04;;;;;;;33.78;14.95;;;;;;;22.60;80.07;101817.13;5075788;28;20040;-88
2023/10/02 11:05:33;;;;;;;32.88;14.60;;;;;;;22.68;80.13;101817.13;5044677;28;20036;-82
2023/10/02 11:08:10;;;;;;;28.05;15.55;;;;;;;22.71;78.40;101816.78;5070557;28;20036;-82
2023/10/02 11:10:36;;;;;;;24.80;15.10;;;;;;;22.60;77.92;101814.44;5092343;28;20035;-82
2023/10/02 11:13:08;;;;;;;24.95;14.65;;;;;;;22.53;80.36;101814.28;5074411;28;20029;-83
2023/10/02 11:15:46;;;;;;;24.88;14.98;;;;;;;22.63;80.91;101808.75;5080000;28;20097;-83
2023/10/02 11:18:19;;;;;;;22.10;13.75;;;;;;;22.80;80.51;101811.25;5090012;28;20016;-83
2023/10/02 11:20:50;;;;;;;25.23;15.52;;;;;;;22.88;78.68;101810.44;5091638;28;20384;-83
2023/10/02 11:23:40;;;;;;;24.02;14.73;;;;;;;23.19;79.91;101804.31;5082351;28;20021;-83
2023/10/02 11:26:13;;;;;;;25.42;14.57;;;;;;;23.38;76.72;101803.91;5077895;28;20033;-83
2023/10/02 11:28:41;;;;;;;24.58;14.68;;;;;;;23.65;75.96;101795.44;5089417;28;20027;-83
2023/10/02 11:31:32;;;;;;;27.63;14.88;;;;;;;23.68;74.05;101800.47;5092576;28;20357;-85
2023/10/02 11:34:06;;;;;;;28.10;15.00;;;;;;;23.98;74.19;101796.06;5087555;28;20024;-83
2023/10/02 11:36:37;;;;;;;23.92;13.70;;;;;;;24.10;74.29;101801.03;5065839;28;20020;-82
2023/10/02 11:39:09;;;;;;;22.65;14.07;;;;;;;24.22;73.97;101792.38;5060495;28;20483;-86
2023/10/02 11:41:50;;;;;;;22.40;13.55;;;;;;;24.42;71.57;101791.94;5064027;28;20036;-82
2023/10/02 11:44:16;;;;;;;20.10;12.48;;;;;;;24.61;74.81;101794.09;5069081;28;20032;-85
2023/10/02 11:46:46;;;;;;;21.73;14.15;;;;;;;24.58;71.37;101792.59;5078647;28;20168;-85
2023/10/02 11:49:12;;;;;;;21.08;12.93;;;;;;;24.65;70.44;101787.31;5090809;28;20438;-82
2023/10/02 11:51:39;;;;;;;22.52;13.70;;;;;;;24.63;70.58;101776.75;5091765;28;20063;-81
2023/10/02 11:54:11;;;;;;;19.52;12.88;;;;;;;24.63;70.63;101778.59;5072500;28;20382;-84
2023/10/02 11:56:38;;;;;;;;;;;;;;;24.90;74.94;101769.91;5088301;28;20020;-82
2023/10/02 11:59:03;;;;;;;23.17;13.00;;;;;;;24.93;69.39;101766.03;5079034;28;19999;-83
2023/10/02 12:01:29;;;;;;;19.35;12.85;;;;;;;24.93;69.46;101774.09;5055116;28;20400;-83
2023/10/02 12:03:57;;;;;;;20.90;12.45;;;;;;;24.88;70.42;101766.56;5079706;28;20028;-83
2023/10/02 12:06:25;;;;;;;20.42;13.30;;;;;;;24.82;70.62;101766.47;5082034;28;20514;-83
2023/10/02 12:08:51;;;;;;;20.67;12.57;;;;;;;24.88;70.78;101761.19;5091017;28;20051;-83
2023/10/02 12:11:17;;;;;;;19.92;12.57;;;;;;;24.71;70.26;101759.69;5089868;28;20024;-82
2023/10/02 12:13:44;;;;;;;20.00;13.07;;;;;;;24.57;71.53;101755.94;5091231;28;20027;-82
2023/10/02 12:16:13;;;;;;;27.38;13.73;;;;;;;24.56;72.39;101758.81;5090688;28;20027;-82
2023/10/02 12:18:39;;;;;;;23.63;13.07;;;;;;;24.56;72.46;101751.59;5072799;28;20024;-85
2023/10/02 12:21:11;;;;;;;21.15;12.65;;;;;;;24.45;72.88;101753.91;5090726;28;20506;-83
2023/10/02 12:23:40;;;;;;;23.00;12.60;;;;;;;24.56;72.50;101750.75;5068003;28;20060;-85
2023/10/02 12:26:12;;;;;;;25.17;13.32;;;;;;;24.61;72.43;101759.09;5076623;28;20099;-84
2023/10/02 12:28:38;;;;;;;20.15;12.70;;;;;;;24.59;72.03;101748.53;5072838;28;20066;-85
2023/10/02 12:31:14;;;;;;;21.80;12.68;;;;;;;24.67;72.47;101742.22;5074729;28;20749;-83